In Rescue
 
Open Full Screen Window  High Contrast Mode
Wind Gusting 00 knots
12
January 18, 2019 7:20 AM CST
Present Weather: Light Snow
Weather Information
Wind Direction
  070 °
Wind Speed
  12 kt (14 mph)
Wind Gust
  00 kt (0 mph)
Altimeter
30.06 in
Visibility
1 SM
Temperature
-13° C
F
Dewpoint
-13° C
F
Humidity
100%
1hr Rain Fall
00.22 in.
24hr Rain Fall
01.04 in.
Sky Condition
Missing
IFR

METAR KMDS 181320Z AUTO 07012KT 1SM -SN M13/M13 A3006 RMK AO2 P0022

FAA Disclaimer: The data displayed is for advisory purposes only and is not to be used for flight planning or operations.
Missing Cloud Data